Pagina principale
METAR-TAF:

METAR-TAF

Aeroporti :

Aeroporto di Chengdu-Shuangliu

Chengdu, Cina

latitudine: 30-40N, longitudine: 104-01E, altezza: 508 m

Osservazione

Il bollettino è stato emesso 19 minuti fa, alle 23:00 UTC
Vento 4 kt da sud-ovest
Temperature 26°C
Umidità 89%
Pressione 1003 hPa
Visibilità 10 km o più
Nuvoloso ad un'altezza di 5000 ft

METAR: ZUUU 192300Z 22002MPS 9999 BKN050 26/24 Q1003 NOSIG

Ora: 07:19 (23:19 UTC)

Previsione

Il bollettino è stato emesso 9 ore e 12 minuti fa, alle 14:07 UTC
Previsione valida dal 19 alle 18 UTC al 20 alle 18 UTC
Vento 6 kt da nord
Visibilità: 5000 m
Poco nuvoloso ad un'altezza di 3000 ft, Cumulonembo.
Nubi sparse ad un'altezza di 4000 ft
foschia
Temporaneamente
dal 20 alle 10 UTC al 20 alle 12 UTC
temporale, pioggia debole

TAF: ZUUU 191407Z 1918/2018 36003MPS 5000 BR FEW030CB SCT040 TX34/2007Z TN25/1922Z TEMPO 2010/2012 -TSRA

Osservazioni e previsioni meteorologiche di più di 4000 aeroporti (messaggi METAR e TAF).

Le stazioni disponibili sono rappresentate dai dischi gialli e rossi sulla carta.

Puntare il mouse per vedere il nome della stazione.

Clicca sopra per visualizzare le osservazioni e previsioni meteorologiche.

Per cambiare la mappa : fare clic sui pulsanti verdi con una croce nera per ingrandire, il pulsante verde con un trattino per diminuire, o sulla freccia verde per le mappe adiacenti.


METAR-TAF: